Aérodrome :
LOGIN :

S'inscrire | Disclaimer

   EN    FR    IT 

 










Légende :    VFR   VFR Marginal   IFR   IFR Intensif   IFR Très Intensif
Visi : 
Plafond : 
>= 8 km
>= 3000ft
5 à 8 km
1000 à 3000 ft
1500m à 5 km
500 à 1000 ft
800 à 1500m
200 à 500 ft
< 800m
< 200 ft
Symboles :   Orages  Brouillard  Fortes neiges  Fortes précipitations  Vent > 20 kt
SIGMETs :   Divers  Orages  Givrage  Turbulence  Onde Orograph.  Cendres Volcan.







- Altitude de l'aérodrome : 20 ft


EBFN - Koksijde

DERNIER METAR :
  • 210155Z AUTO 21003KT 2700 BR NCD 04/03 Q1025 YLO

METARs EXPIRÉS :
  • 210125Z AUTO 21004KT 3000 BR NCD 04/03 Q1025 YLO
  • 210055Z AUTO 20003KT 2200 BR NCD 03/02 Q1025 YLO
  • 210025Z AUTO VRB02KT 2200 BR NCD 04/02 Q1025 YLO
  • 210015Z AUTO VRB02KT 3600 BR NCD 04/03 Q1025 YLO
  • 202355Z AUTO 22003KT 3700 BR NCD 04/03 Q1024 GRN
  • 202343Z AUTO 20003KT 3600 BR FEW032/// 04/02 Q1024 YLO
  • 202325Z AUTO 20004KT 4300 BR SCT032/// 04/02 Q1024 GRN

TAF TAF EBFN
Valide du 20 à 19h jusqu'au 21 à 07h UTC


201541Z 2019/2107 22010KT 9999 FEW025 SCT130
TEMPO 2100/2107 4000 BR SCT100
PROB30
TEMPO 2102/2107 2000 BR BKN050
Pas de NOTAMs connus pour ce terrain.



MET'MAP, la Météo Aéronautique d'un coup d'oeil ! - Copyright ORBIFLY Décembre 2007 - Disclaimer

ORBIFLY MET'MAP TEAM :

Programmation & Développement : Alexandra Zaïnal
Conception & Développement : Baudouin d'Aumeries
Co-Programmation & Développement : Marc-Olivier Méhu
Soutien technique & logistique : Manuel Goepfert

Contact : metmap@orbifly.com




SOURCES & CREDITS :

   NOAA